Terminal Aerodrome Forecast
Issued by NWS

Home | Current Version | Previous Version | Text Only | Print | Product List | Glossary On
Versions: 1 2 3 4 5 6 7 8 9 10 11 12 13 14 15 16 17 18 19
000
FTUS46 KPDT 180049 AAA
TAFBDN
TAF AMD
KBDN 180049Z 1801/1824 14007KT P6SM SCT040 OVC090
     FM180300 19010KT 5SM -RASN BR BKN035 OVC060
     FM180900 20017KT 5SM -RA BR OVC040=

USA.gov is the U.S. government's official web portal to all federal, state and local government web resources and services.